Wrangell, Alaska
Current Conditions -  °F | °C
As of 6:16 PM on Friday 21 Nov 2014 (Local Time) from PAWG Reporting Station
Overcast Overcast  
Wind Chill: 40°   Ceiling: 3400
Heat Index: 43°   Visibility: 10mi
Dew Point: 37°   Wind: 5mph
Humidity: 81%   Direction: 120°ESE
Pressure: 29.25"   Gusts: NA
Location:  56.47°N, 132.38°W
Report Text: PAWG 220316Z 12004KT 10SM SCT028 BKN034 OVC048 06/03 A2925 RMK AO1 WEA: NONE (MCQ)
Loading
Personal Weather Stations






























Interactive Weather Map New forecast layout! Learn more

10-Day Weather Forecast

Advertisements
Track Severe Weather on mobile